createdAt,value
2022-09-16T00:00:31.956Z,9.90
2022-09-16T00:05:34.042Z,8.45
2022-09-16T00:10:36.323Z,8.80
2022-09-16T00:15:43.204Z,9.27
2022-09-16T00:20:51.082Z,9.48
2022-09-16T00:25:55.259Z,8.70
2022-09-16T00:31:01.235Z,9.65
2022-09-16T00:36:15.457Z,8.80
2022-09-16T00:41:21.150Z,8.48
2022-09-16T00:46:39.147Z,9.75
2022-09-16T00:51:42.745Z,9.70
2022-09-16T00:56:48.109Z,10.55
2022-09-16T01:01:51.844Z,8.55
2022-09-16T01:06:54.680Z,9.05
2022-09-16T01:11:56.839Z,7.53
2022-09-16T01:17:16.773Z,7.32
2022-09-16T01:22:36.054Z,8.02
2022-09-16T01:27:52.429Z,8.10
2022-09-16T01:33:05.020Z,8.35
2022-09-16T01:38:18.285Z,10.75
2022-09-16T01:43:50.890Z,8.70
2022-09-16T01:49:07.402Z,8.98
2022-09-16T01:54:18.925Z,7.65
2022-09-16T01:59:23.345Z,6.85
2022-09-16T02:04:32.005Z,7.50
2022-09-16T02:09:39.272Z,6.82
2022-09-16T02:14:46.193Z,6.82
2022-09-16T02:20:05.111Z,6.47
2022-09-16T02:25:09.116Z,6.00
2022-09-16T02:30:17.057Z,5.78
2022-09-16T02:35:20.944Z,5.78
2022-09-16T02:40:27.324Z,5.07
2022-09-16T02:45:59.460Z,5.13
2022-09-16T02:51:12.392Z,5.22
2022-09-16T02:56:24.968Z,5.30
2022-09-16T03:01:30.519Z,5.25
2022-09-16T03:06:36.160Z,5.75
2022-09-16T03:11:50.148Z,5.60
2022-09-16T03:17:00.974Z,5.47
2022-09-16T03:22:11.856Z,5.80
2022-09-16T03:27:20.804Z,5.45
2022-09-16T03:32:27.481Z,5.47
2022-09-16T03:37:34.367Z,5.55
2022-09-16T03:42:39.904Z,5.65
2022-09-16T03:47:43.224Z,6.35
2022-09-16T03:52:45.353Z,6.22
2022-09-16T03:57:47.339Z,6.55
2022-09-16T04:02:49.476Z,5.93
2022-09-16T04:07:51.681Z,6.38
2022-09-16T04:12:58.488Z,6.32
2022-09-16T04:18:00.641Z,6.25
2022-09-16T04:23:02.833Z,6.18
2022-09-16T04:28:04.753Z,6.45
2022-09-16T04:33:07.016Z,6.78
2022-09-16T04:38:08.886Z,7.00
2022-09-16T04:43:10.787Z,6.07
2022-09-16T04:48:12.868Z,6.03
2022-09-16T04:53:14.837Z,6.07
2022-09-16T04:58:16.765Z,6.50
2022-09-16T05:03:18.895Z,5.88
2022-09-16T05:08:20.768Z,5.72
2022-09-16T05:13:23.589Z,5.10
2022-09-16T05:18:25.525Z,5.80
2022-09-16T05:23:28.089Z,5.50
2022-09-16T05:28:30.013Z,5.32
2022-09-16T05:33:32.164Z,4.82
2022-09-16T05:38:34.318Z,4.38
2022-09-16T05:43:36.892Z,5.22
2022-09-16T05:48:38.822Z,4.07
2022-09-16T05:53:40.720Z,4.28
2022-09-16T05:58:43.068Z,5.57
2022-09-16T06:03:46.671Z,3.85
2022-09-16T06:08:48.993Z,3.90
2022-09-16T06:13:56.109Z,3.40
2022-09-16T06:18:58.117Z,3.20
2022-09-16T06:24:00.289Z,2.80
2022-09-16T06:29:02.444Z,3.30
2022-09-16T06:34:06.258Z,2.80
2022-09-16T06:39:11.434Z,3.15
2022-09-16T06:44:13.421Z,2.58
2022-09-16T06:49:15.291Z,2.70
2022-09-16T06:54:17.521Z,2.67
2022-09-16T06:59:19.369Z,2.53
2022-09-16T07:04:21.261Z,2.63
2022-09-16T07:09:24.036Z,2.42
2022-09-16T07:14:27.711Z,2.67
2022-09-16T07:19:29.644Z,2.35
2022-09-16T07:24:31.590Z,2.53
2022-09-16T07:29:33.556Z,2.47
2022-09-16T07:34:35.881Z,1.67
2022-09-16T07:39:37.842Z,3.03
2022-09-16T07:44:39.781Z,2.78
2022-09-16T07:49:42.357Z,2.65
2022-09-16T07:54:44.256Z,2.35
2022-09-16T07:59:46.090Z,2.10
2022-09-16T08:04:48.128Z,2.35
2022-09-16T08:09:51.342Z,2.38
2022-09-16T08:14:55.009Z,2.40
2022-09-16T08:19:56.923Z,2.45
2022-09-16T08:24:58.822Z,2.38
2022-09-16T08:30:00.680Z,3.13
2022-09-16T08:35:03.282Z,2.63
2022-09-16T08:40:06.244Z,2.20
2022-09-16T08:45:28.840Z,2.15
2022-09-16T08:50:35.216Z,1.80
2022-09-16T08:55:46.809Z,2.22
2022-09-16T09:00:57.122Z,2.20
2022-09-16T09:06:00.635Z,2.25
2022-09-16T09:11:15.109Z,2.20
2022-09-16T09:16:22.966Z,1.77
2022-09-16T09:21:49.929Z,1.80
2022-09-16T09:27:16.991Z,1.95
2022-09-16T09:32:51.341Z,1.92
2022-09-16T09:38:28.530Z,1.83
2022-09-16T09:43:46.799Z,2.15
2022-09-16T09:48:56.193Z,1.70
2022-09-16T09:54:27.035Z,2.03
2022-09-16T09:59:32.822Z,2.20
2022-09-16T10:04:39.073Z,1.83
2022-09-16T10:10:19.077Z,2.00
2022-09-16T10:15:29.061Z,2.08
2022-09-16T10:20:34.900Z,1.98
2022-09-16T10:25:37.176Z,2.00
2022-09-16T10:30:52.548Z,1.95
2022-09-16T10:36:01.101Z,1.85
2022-09-16T10:41:15.795Z,1.85
2022-09-16T10:46:19.207Z,2.03
2022-09-16T10:56:31.195Z,1.88
2022-09-16T11:02:04.286Z,1.67
2022-09-16T11:07:22.001Z,1.90
2022-09-16T11:12:45.673Z,1.48
2022-09-16T11:23:13.720Z,1.67
2022-09-16T11:28:36.638Z,1.80
2022-09-16T11:34:01.383Z,2.00
2022-09-16T11:39:13.706Z,1.80
2022-09-16T11:44:41.182Z,1.92
2022-09-16T11:50:07.272Z,1.83
2022-09-16T11:55:26.248Z,1.52
2022-09-16T12:00:31.438Z,2.13
2022-09-16T12:06:09.573Z,1.30
2022-09-16T12:11:19.559Z,1.40
2022-09-16T12:16:33.809Z,1.70
2022-09-16T12:21:58.033Z,1.70
2022-09-16T12:27:19.572Z,2.00
2022-09-16T12:32:56.778Z,1.48
2022-09-16T12:37:59.513Z,1.90
2022-09-16T12:43:10.880Z,1.47
2022-09-16T12:48:41.819Z,1.63
2022-09-16T12:53:52.848Z,1.55
2022-09-16T12:59:38.281Z,9.10
2022-09-16T13:04:44.147Z,2.08
2022-09-16T13:09:47.440Z,1.83
2022-09-16T13:15:05.053Z,3.53
2022-09-16T13:20:18.096Z,1.80
2022-09-16T13:25:38.907Z,2.28
2022-09-16T13:30:40.848Z,2.75
2022-09-16T13:35:44.868Z,4.63
2022-09-16T13:40:58.615Z,3.90
2022-09-16T13:46:09.219Z,5.85
2022-09-16T13:51:18.252Z,2.45
2022-09-16T13:56:26.132Z,2.00
2022-09-16T14:01:58.404Z,1.83
2022-09-16T14:07:10.914Z,2.47
2022-09-16T14:12:31.641Z,1.65
2022-09-16T14:17:45.655Z,1.40
2022-09-16T14:23:04.948Z,1.65
2022-09-16T14:28:15.514Z,1.38
2022-09-16T14:33:22.298Z,2.90
2022-09-16T14:38:45.628Z,1.10
2022-09-16T14:43:48.627Z,1.20
2022-09-16T14:48:50.768Z,1.42
2022-09-16T14:54:12.210Z,10.35
2022-09-16T14:59:15.439Z,3.55
2022-09-16T15:04:25.981Z,12.25
2022-09-16T15:09:45.363Z,1.92
2022-09-16T15:14:48.075Z,1.70
2022-09-16T15:19:54.348Z,1.50
2022-09-16T15:24:59.460Z,2.22
2022-09-16T15:30:05.377Z,2.78
2022-09-16T15:35:19.916Z,3.17
2022-09-16T15:40:27.983Z,5.90
2022-09-16T15:45:30.187Z,3.30
2022-09-16T15:50:44.352Z,2.13
2022-09-16T15:55:57.944Z,3.45
2022-09-16T16:01:09.627Z,4.18
2022-09-16T16:06:12.542Z,3.22
2022-09-16T16:11:25.165Z,35.55
2022-09-16T16:16:28.662Z,7.78
2022-09-16T16:26:32.855Z,8.57
2022-09-16T16:31:37.166Z,5.55
2022-09-16T16:36:39.334Z,12.68
2022-09-16T16:41:41.293Z,4.10
2022-09-16T16:46:43.591Z,6.57
2022-09-16T16:51:48.385Z,3.03
2022-09-16T16:56:50.875Z,7.63
2022-09-16T17:01:55.337Z,26.02
2022-09-16T17:07:21.397Z,7.95
2022-09-16T17:12:19.716Z,6.18
2022-09-16T17:17:22.163Z,3.88
2022-09-16T17:22:24.091Z,3.92
2022-09-16T17:27:28.808Z,5.13
2022-09-16T17:32:32.802Z,7.93
2022-09-16T17:37:44.935Z,8.40
2022-09-16T17:42:51.451Z,6.35
2022-09-16T17:47:53.528Z,7.45
2022-09-16T17:52:55.898Z,9.90
2022-09-16T17:57:58.273Z,6.63
2022-09-16T18:03:01.358Z,9.27
2022-09-16T18:08:04.572Z,8.17
2022-09-16T18:13:06.533Z,10.18
2022-09-16T18:18:11.070Z,9.93
2022-09-16T18:23:14.220Z,17.05
2022-09-16T18:28:17.122Z,69.47
2022-09-16T18:33:20.485Z,47.10
2022-09-16T18:38:25.497Z,38.53
2022-09-16T18:43:27.721Z,32.25
2022-09-16T18:48:29.667Z,30.42
2022-09-16T18:53:32.761Z,12.10
2022-09-16T18:58:35.159Z,36.05
2022-09-16T19:03:37.567Z,22.05
2022-09-16T19:08:40.759Z,17.80
2022-09-16T19:13:45.308Z,12.48
2022-09-16T19:18:55.337Z,15.20
2022-09-16T19:24:00.135Z,45.35
2022-09-16T19:29:06.831Z,48.25
2022-09-16T19:34:10.453Z,28.95
2022-09-16T19:44:17.148Z,13.10
2022-09-16T19:49:21.360Z,23.70
2022-09-16T19:54:24.384Z,19.85
2022-09-16T19:59:26.916Z,9.20
2022-09-16T20:04:29.788Z,8.20
2022-09-16T20:09:34.816Z,9.37
2022-09-16T20:14:37.458Z,10.15
2022-09-16T20:19:40.737Z,10.35
2022-09-16T20:24:42.741Z,9.00
2022-09-16T20:29:45.028Z,8.95
2022-09-16T20:34:47.197Z,9.70
2022-09-16T20:39:49.420Z,9.18
2022-09-16T20:44:51.645Z,8.35
2022-09-16T20:49:54.773Z,6.72
2022-09-16T20:54:57.201Z,7.68
2022-09-16T20:59:59.729Z,7.05
2022-09-16T21:05:04.772Z,7.10
2022-09-16T21:10:07.649Z,10.20
2022-09-16T21:15:09.969Z,7.90
2022-09-16T21:20:11.969Z,6.95
2022-09-16T21:25:13.996Z,7.63
2022-09-16T21:30:16.610Z,8.23
2022-09-16T21:35:19.065Z,9.63
2022-09-16T21:40:23.551Z,8.38
2022-09-16T21:45:26.272Z,7.78
2022-09-16T21:50:28.284Z,7.82
2022-09-16T21:55:30.704Z,7.93
2022-09-16T22:00:33.160Z,7.50
2022-09-16T22:05:35.174Z,6.78
2022-09-16T22:10:39.081Z,5.93
2022-09-16T22:15:49.857Z,5.88
2022-09-16T22:20:52.589Z,5.70
2022-09-16T22:25:54.717Z,4.93
2022-09-16T22:31:06.334Z,5.93
2022-09-16T22:36:13.893Z,5.07
2022-09-16T22:41:17.625Z,6.28
2022-09-16T22:46:21.926Z,4.68
2022-09-16T22:51:24.705Z,5.25
2022-09-16T22:56:33.544Z,4.88
2022-09-16T23:01:38.737Z,5.30
2022-09-16T23:06:41.372Z,4.63
2022-09-16T23:11:44.162Z,10.48
2022-09-16T23:16:46.114Z,4.43
2022-09-16T23:21:49.964Z,4.70
2022-09-16T23:26:51.926Z,4.63
2022-09-16T23:31:53.905Z,5.00
2022-09-16T23:36:55.828Z,4.88
2022-09-16T23:41:58.929Z,5.20
2022-09-16T23:47:00.931Z,7.30
2022-09-16T23:52:03.391Z,5.32
2022-09-16T23:57:05.593Z,6.05
